sensor_id;sensor_type;location;lat;lon;timestamp;pressure;altitude;pressure_sealevel;temperature;humidity
62942;BME280;49042;47.318;19.874;2023-07-13T00:00:45;100120.75;;;22.03;100.00
62942;BME280;49042;47.318;19.874;2023-07-13T00:03:47;100115.19;;;21.72;100.00
62942;BME280;49042;47.318;19.874;2023-07-13T00:06:49;100093.84;;;21.33;100.00
62942;BME280;49042;47.318;19.874;2023-07-13T00:09:51;100088.06;;;21.12;100.00
62942;BME280;49042;47.318;19.874;2023-07-13T00:12:53;100099.34;;;21.68;100.00
62942;BME280;49042;47.318;19.874;2023-07-13T00:15:57;100108.50;;;21.97;100.00
62942;BME280;49042;47.318;19.874;2023-07-13T00:18:59;100119.88;;;22.02;100.00
62942;BME280;49042;47.318;19.874;2023-07-13T00:22:02;100105.59;;;21.65;100.00
62942;BME280;49042;47.318;19.874;2023-07-13T00:25:04;100093.66;;;21.44;100.00
62942;BME280;49042;47.318;19.874;2023-07-13T00:28:06;100088.06;;;21.10;100.00
62942;BME280;49042;47.318;19.874;2023-07-13T00:31:10;100080.28;;;21.01;100.00
62942;BME280;49042;47.318;19.874;2023-07-13T00:34:12;100101.53;;;21.48;100.00
62942;BME280;49042;47.318;19.874;2023-07-13T00:37:14;100088.84;;;21.17;100.00
62942;BME280;49042;47.318;19.874;2023-07-13T00:40:16;100070.50;;;21.06;100.00
62942;BME280;49042;47.318;19.874;2023-07-13T00:43:22;100088.75;;;21.22;100.00
62942;BME280;49042;47.318;19.874;2023-07-13T00:46:26;100081.59;;;21.27;100.00
62942;BME280;49042;47.318;19.874;2023-07-13T00:49:30;100087.87;;;21.21;100.00
62942;BME280;49042;47.318;19.874;2023-07-13T00:52:35;100076.72;;;21.02;100.00
62942;BME280;49042;47.318;19.874;2023-07-13T00:55:38;100089.09;;;21.01;100.00
62942;BME280;49042;47.318;19.874;2023-07-13T00:58:40;100110.03;;;20.64;100.00
62942;BME280;49042;47.318;19.874;2023-07-13T01:01:42;100094.25;;;20.57;100.00
62942;BME280;49042;47.318;19.874;2023-07-13T01:04:44;100096.78;;;20.64;100.00
62942;BME280;49042;47.318;19.874;2023-07-13T01:07:47;100089.19;;;20.96;100.00
62942;BME280;49042;47.318;19.874;2023-07-13T01:10:57;100092.56;;;21.06;100.00
62942;BME280;49042;47.318;19.874;2023-07-13T01:14:00;100084.59;;;21.06;100.00
62942;BME280;49042;47.318;19.874;2023-07-13T01:17:03;100093.12;;;21.24;100.00
62942;BME280;49042;47.318;19.874;2023-07-13T01:20:05;100091.19;;;21.33;100.00
62942;BME280;49042;47.318;19.874;2023-07-13T01:23:09;100093.31;;;21.59;100.00
62942;BME280;49042;47.318;19.874;2023-07-13T01:26:12;100092.28;;;21.67;100.00
62942;BME280;49042;47.318;19.874;2023-07-13T01:29:14;100077.81;;;21.82;100.00
62942;BME280;49042;47.318;19.874;2023-07-13T01:32:23;100076.72;;;21.94;100.00
62942;BME280;49042;47.318;19.874;2023-07-13T01:35:26;100077.47;;;21.99;100.00
62942;BME280;49042;47.318;19.874;2023-07-13T01:38:28;100081.56;;;22.14;100.00
62942;BME280;49042;47.318;19.874;2023-07-13T01:41:30;100087.81;;;22.12;100.00
62942;BME280;49042;47.318;19.874;2023-07-13T01:44:32;100079.84;;;22.12;100.00
62942;BME280;49042;47.318;19.874;2023-07-13T01:47:34;100070.09;;;22.12;100.00
62942;BME280;49042;47.318;19.874;2023-07-13T01:50:36;100063.06;;;22.11;100.00
62942;BME280;49042;47.318;19.874;2023-07-13T01:53:38;100050.50;;;22.18;100.00
62942;BME280;49042;47.318;19.874;2023-07-13T01:56:39;100047.19;;;22.08;100.00
62942;BME280;49042;47.318;19.874;2023-07-13T01:59:43;100048.44;;;22.30;100.00
62942;BME280;49042;47.318;19.874;2023-07-13T02:02:44;100040.06;;;22.09;100.00
62942;BME280;49042;47.318;19.874;2023-07-13T02:05:46;100024.00;;;21.75;100.00
62942;BME280;49042;47.318;19.874;2023-07-13T02:08:48;100009.41;;;21.55;100.00
62942;BME280;49042;47.318;19.874;2023-07-13T02:11:50;100015.81;;;21.45;100.00
62942;BME280;49042;47.318;19.874;2023-07-13T02:14:52;100007.09;;;21.38;100.00
62942;BME280;49042;47.318;19.874;2023-07-13T02:17:53;100003.81;;;21.26;100.00
62942;BME280;49042;47.318;19.874;2023-07-13T02:20:55;99988.13;;;21.14;100.00
62942;BME280;49042;47.318;19.874;2023-07-13T02:23:57;99965.69;;;20.86;100.00
62942;BME280;49042;47.318;19.874;2023-07-13T02:26:59;99958.75;;;20.79;100.00
62942;BME280;49042;47.318;19.874;2023-07-13T02:30:01;99944.88;;;20.65;100.00
62942;BME280;49042;47.318;19.874;2023-07-13T02:33:02;99945.06;;;20.56;100.00
62942;BME280;49042;47.318;19.874;2023-07-13T02:36:05;99945.19;;;20.48;100.00
62942;BME280;49042;47.318;19.874;2023-07-13T02:39:08;99941.78;;;20.41;100.00
62942;BME280;49042;47.318;19.874;2023-07-13T02:42:12;99939.22;;;20.37;100.00
62942;BME280;49042;47.318;19.874;2023-07-13T02:45:14;99925.16;;;20.33;100.00
62942;BME280;49042;47.318;19.874;2023-07-13T02:48:16;99933.16;;;20.28;100.00
62942;BME280;49042;47.318;19.874;2023-07-13T02:51:17;99934.97;;;20.28;100.00
62942;BME280;49042;47.318;19.874;2023-07-13T02:54:19;99920.09;;;20.20;100.00
62942;BME280;49042;47.318;19.874;2023-07-13T02:57:21;99921.91;;;20.15;100.00
62942;BME280;49042;47.318;19.874;2023-07-13T03:00:23;99930.69;;;20.19;100.00
62942;BME280;49042;47.318;19.874;2023-07-13T03:03:24;99932.59;;;20.09;100.00
62942;BME280;49042;47.318;19.874;2023-07-13T03:06:26;99928.12;;;20.11;100.00
62942;BME280;49042;47.318;19.874;2023-07-13T03:09:33;99950.97;;;20.20;100.00
62942;BME280;49042;47.318;19.874;2023-07-13T03:12:35;99959.81;;;20.20;100.00
62942;BME280;49042;47.318;19.874;2023-07-13T03:15:37;99947.41;;;20.22;100.00
62942;BME280;49042;47.318;19.874;2023-07-13T03:18:38;99952.63;;;20.26;100.00
62942;BME280;49042;47.318;19.874;2023-07-13T03:21:40;99958.56;;;20.40;100.00
62942;BME280;49042;47.318;19.874;2023-07-13T03:24:42;99975.72;;;20.68;100.00
62942;BME280;49042;47.318;19.874;2023-07-13T03:27:43;99975.41;;;20.85;100.00
62942;BME280;49042;47.318;19.874;2023-07-13T03:30:45;99967.28;;;20.47;100.00
62942;BME280;49042;47.318;19.874;2023-07-13T03:33:47;99959.41;;;20.42;100.00
62942;BME280;49042;47.318;19.874;2023-07-13T03:36:49;99956.72;;;20.46;100.00
62942;BME280;49042;47.318;19.874;2023-07-13T03:39:51;99965.50;;;20.49;100.00
62942;BME280;49042;47.318;19.874;2023-07-13T03:42:53;99979.81;;;20.86;100.00
62942;BME280;49042;47.318;19.874;2023-07-13T03:45:55;99982.03;;;21.10;100.00
62942;BME280;49042;47.318;19.874;2023-07-13T03:48:57;99982.47;;;20.86;100.00
62942;BME280;49042;47.318;19.874;2023-07-13T03:51:59;99959.06;;;20.63;100.00
62942;BME280;49042;47.318;19.874;2023-07-13T03:55:00;99946.72;;;20.60;100.00
62942;BME280;49042;47.318;19.874;2023-07-13T04:01:29;99951.97;;;21.10;100.00
62942;BME280;49042;47.318;19.874;2023-07-13T04:04:30;99969.72;;;21.49;100.00
62942;BME280;49042;47.318;19.874;2023-07-13T04:07:32;99980.75;;;21.70;100.00
62942;BME280;49042;47.318;19.874;2023-07-13T04:10:34;99992.69;;;21.91;100.00
62942;BME280;49042;47.318;19.874;2023-07-13T04:13:36;99981.94;;;21.98;100.00
62942;BME280;49042;47.318;19.874;2023-07-13T04:16:37;99992.63;;;22.31;100.00
62942;BME280;49042;47.318;19.874;2023-07-13T04:19:39;99985.97;;;22.13;100.00
62942;BME280;49042;47.318;19.874;2023-07-13T04:22:41;100000.19;;;22.12;100.00
62942;BME280;49042;47.318;19.874;2023-07-13T04:25:44;100012.47;;;22.16;100.00
62942;BME280;49042;47.318;19.874;2023-07-13T04:28:47;100020.31;;;22.57;100.00
62942;BME280;49042;47.318;19.874;2023-07-13T04:31:48;100016.09;;;22.49;100.00
62942;BME280;49042;47.318;19.874;2023-07-13T04:34:50;100030.78;;;22.29;100.00
62942;BME280;49042;47.318;19.874;2023-07-13T04:37:54;100043.72;;;22.04;100.00
62942;BME280;49042;47.318;19.874;2023-07-13T04:40:57;100057.00;;;22.04;100.00
62942;BME280;49042;47.318;19.874;2023-07-13T04:43:59;100067.47;;;22.47;100.00
62942;BME280;49042;47.318;19.874;2023-07-13T04:47:01;100084.72;;;22.67;100.00
62942;BME280;49042;47.318;19.874;2023-07-13T04:50:03;100100.19;;;22.88;100.00
62942;BME280;49042;47.318;19.874;2023-07-13T04:53:06;100095.22;;;22.72;100.00
62942;BME280;49042;47.318;19.874;2023-07-13T04:56:07;100102.09;;;22.83;100.00
62942;BME280;49042;47.318;19.874;2023-07-13T04:59:10;100111.31;;;22.67;100.00
62942;BME280;49042;47.318;19.874;2023-07-13T05:02:11;100125.16;;;23.16;100.00
62942;BME280;49042;47.318;19.874;2023-07-13T05:05:13;100133.41;;;23.06;100.00
62942;BME280;49042;47.318;19.874;2023-07-13T05:08:15;100127.28;;;23.03;100.00
62942;BME280;49042;47.318;19.874;2023-07-13T05:11:17;100135.63;;;22.88;100.00
62942;BME280;49042;47.318;19.874;2023-07-13T05:14:19;100112.38;;;22.22;100.00
62942;BME280;49042;47.318;19.874;2023-07-13T05:17:21;100092.38;;;22.05;100.00
62942;BME280;49042;47.318;19.874;2023-07-13T05:20:23;100099.19;;;22.17;100.00
62942;BME280;49042;47.318;19.874;2023-07-13T05:23:24;100083.69;;;21.98;100.00
62942;BME280;49042;47.318;19.874;2023-07-13T05:26:26;100079.44;;;21.88;100.00
62942;BME280;49042;47.318;19.874;2023-07-13T05:29:28;100069.03;;;21.80;100.00
62942;BME280;49042;47.318;19.874;2023-07-13T05:32:30;100065.50;;;22.19;100.00
62942;BME280;49042;47.318;19.874;2023-07-13T05:35:32;100056.94;;;22.08;100.00
62942;BME280;49042;47.318;19.874;2023-07-13T05:38:34;100059.28;;;22.20;100.00
62942;BME280;49042;47.318;19.874;2023-07-13T05:41:36;100050.87;;;22.39;100.00
62942;BME280;49042;47.318;19.874;2023-07-13T05:44:38;100043.87;;;22.36;100.00
62942;BME280;49042;47.318;19.874;2023-07-13T05:47:39;100026.47;;;22.23;100.00
62942;BME280;49042;47.318;19.874;2023-07-13T05:50:41;100017.50;;;21.89;100.00
62942;BME280;49042;47.318;19.874;2023-07-13T05:53:43;100058.28;;;21.42;100.00
62942;BME280;49042;47.318;19.874;2023-07-13T05:56:45;100032.81;;;20.86;100.00
62942;BME280;49042;47.318;19.874;2023-07-13T05:59:46;99988.25;;;20.04;100.00
62942;BME280;49042;47.318;19.874;2023-07-13T06:02:57;99986.03;;;19.76;100.00
62942;BME280;49042;47.318;19.874;2023-07-13T06:06:31;76059.00;;;19.76;100.00
62942;BME280;49042;47.318;19.874;2023-07-13T07:25:13;99791.03;;;19.27;100.00
62942;BME280;49042;47.318;19.874;2023-07-13T07:28:16;99791.03;;;19.27;100.00
62942;BME280;49042;47.318;19.874;2023-07-13T07:31:23;99846.19;;;18.90;100.00
62942;BME280;49042;47.318;19.874;2023-07-13T07:34:28;99854.56;;;19.19;100.00
62942;BME280;49042;47.318;19.874;2023-07-13T07:37:31;99858.06;;;19.23;100.00
62942;BME280;49042;47.318;19.874;2023-07-13T07:40:40;99844.25;;;19.62;100.00
62942;BME280;49042;47.318;19.874;2023-07-13T07:43:44;99809.94;;;19.59;100.00
62942;BME280;49042;47.318;19.874;2023-07-13T07:46:46;99807.28;;;19.61;100.00
62942;BME280;49042;47.318;19.874;2023-07-13T07:49:48;99801.50;;;20.38;100.00
62942;BME280;49042;47.318;19.874;2023-07-13T07:52:50;99802.47;;;20.32;100.00
62942;BME280;49042;47.318;19.874;2023-07-13T07:55:52;99810.50;;;20.72;100.00
62942;BME280;49042;47.318;19.874;2023-07-13T07:58:57;99834.44;;;20.23;100.00
62942;BME280;49042;47.318;19.874;2023-07-13T08:02:01;99853.56;;;20.38;100.00
62942;BME280;49042;47.318;19.874;2023-07-13T08:05:10;99851.66;;;20.89;100.00
62942;BME280;49042;47.318;19.874;2023-07-13T08:08:14;99880.44;;;21.08;100.00
62942;BME280;49042;47.318;19.874;2023-07-13T08:11:16;99902.00;;;21.34;100.00
62942;BME280;49042;47.318;19.874;2023-07-13T08:26:20;100215.41;;;24.82;100.00
62942;BME280;49042;47.318;19.874;2023-07-13T08:29:23;100215.41;;;24.82;100.00
62942;BME280;49042;47.318;19.874;2023-07-13T08:32:25;100182.28;;;24.01;100.00
62942;BME280;49042;47.318;19.874;2023-07-13T08:35:26;100201.59;;;24.40;100.00
62942;BME280;49042;47.318;19.874;2023-07-13T08:38:28;100239.91;;;25.75;100.00
62942;BME280;49042;47.318;19.874;2023-07-13T08:41:30;100269.31;;;26.72;100.00
62942;BME280;49042;47.318;19.874;2023-07-13T08:44:44;100260.87;;;27.70;100.00
62942;BME280;49042;47.318;19.874;2023-07-13T08:48:18;100243.44;;;26.72;100.00
62942;BME280;49042;47.318;19.874;2023-07-13T08:51:44;100262.28;;;26.69;100.00
62942;BME280;49042;47.318;19.874;2023-07-13T08:54:50;100278.28;;;26.71;100.00
62942;BME280;49042;47.318;19.874;2023-07-13T08:57:57;100266.31;;;26.09;100.00
62942;BME280;49042;47.318;19.874;2023-07-13T09:04:25;100256.59;;;30.25;95.96
62942;BME280;49042;47.318;19.874;2023-07-13T09:11:41;100259.91;;;28.71;100.00
62942;BME280;49042;47.318;19.874;2023-07-13T09:14:57;100265.06;;;28.76;98.53
62942;BME280;49042;47.318;19.874;2023-07-13T09:18:08;100260.59;;;25.43;100.00
62942;BME280;49042;47.318;19.874;2023-07-13T09:21:13;100267.91;;;27.94;100.00
62942;BME280;49042;47.318;19.874;2023-07-13T09:24:33;100248.00;;;32.05;79.17
62942;BME280;49042;47.318;19.874;2023-07-13T09:27:39;100253.72;;;31.71;75.32
62942;BME280;49042;47.318;19.874;2023-07-13T09:33:50;100231.94;;;32.61;64.91
62942;BME280;49042;47.318;19.874;2023-07-13T09:36:52;100231.44;;;33.77;64.34
62942;BME280;49042;47.318;19.874;2023-07-13T09:39:55;100230.47;;;35.39;55.31
62942;BME280;49042;47.318;19.874;2023-07-13T09:42:58;100218.97;;;35.72;52.65
62942;BME280;49042;47.318;19.874;2023-07-13T09:46:00;100215.00;;;34.31;55.50
62942;BME280;49042;47.318;19.874;2023-07-13T09:49:02;100223.94;;;33.28;60.35
62942;BME280;49042;47.318;19.874;2023-07-13T09:52:11;100230.41;;;34.17;57.82
62942;BME280;49042;47.318;19.874;2023-07-13T09:55:40;100237.91;;;34.76;60.18
62942;BME280;49042;47.318;19.874;2023-07-13T09:58:43;100232.03;;;34.20;58.74
62942;BME280;49042;47.318;19.874;2023-07-13T10:01:45;100225.12;;;31.23;64.22
62942;BME280;49042;47.318;19.874;2023-07-13T10:04:55;100221.69;;;33.48;64.15
62942;BME280;49042;47.318;19.874;2023-07-13T10:07:57;100219.87;;;32.67;62.61
62942;BME280;49042;47.318;19.874;2023-07-13T10:11:11;100211.78;;;32.67;66.33
62942;BME280;49042;47.318;19.874;2023-07-13T10:14:17;100215.47;;;32.23;76.15
62942;BME280;49042;47.318;19.874;2023-07-13T10:17:28;100226.41;;;29.51;79.11
62942;BME280;49042;47.318;19.874;2023-07-13T10:20:32;100224.72;;;28.95;81.39
62942;BME280;49042;47.318;19.874;2023-07-13T10:23:34;100222.34;;;28.13;82.94
62942;BME280;49042;47.318;19.874;2023-07-13T10:26:38;100233.22;;;28.10;90.28
62942;BME280;49042;47.318;19.874;2023-07-13T10:29:58;100241.63;;;28.02;91.66
62942;BME280;49042;47.318;19.874;2023-07-13T10:33:04;100247.00;;;28.02;94.61
62942;BME280;49042;47.318;19.874;2023-07-13T10:36:14;100244.06;;;27.66;91.72
62942;BME280;49042;47.318;19.874;2023-07-13T10:39:27;100257.63;;;28.04;97.86
62942;BME280;49042;47.318;19.874;2023-07-13T10:42:33;100253.91;;;28.06;93.92
62942;BME280;49042;47.318;19.874;2023-07-13T10:45:37;100252.22;;;28.25;98.73
62942;BME280;49042;47.318;19.874;2023-07-13T10:48:40;100244.03;;;28.47;95.45
62942;BME280;49042;47.318;19.874;2023-07-13T10:51:43;100245.97;;;28.63;94.00
62942;BME280;49042;47.318;19.874;2023-07-13T10:54:45;100241.28;;;28.29;91.70
62942;BME280;49042;47.318;19.874;2023-07-13T10:57:48;100233.72;;;28.38;88.14
62942;BME280;49042;47.318;19.874;2023-07-13T11:04:12;100246.25;;;28.18;93.45
62942;BME280;49042;47.318;19.874;2023-07-13T11:07:25;100232.72;;;28.21;88.83
62942;BME280;49042;47.318;19.874;2023-07-13T11:16:52;100229.22;;;28.38;84.14
62942;BME280;49042;47.318;19.874;2023-07-13T11:26:41;100215.28;;;28.51;82.19
62942;BME280;49042;47.318;19.874;2023-07-13T11:29:44;100211.81;;;28.67;79.70
62942;BME280;49042;47.318;19.874;2023-07-13T11:32:50;100201.38;;;28.80;78.23
62942;BME280;49042;47.318;19.874;2023-07-13T11:36:15;100206.25;;;28.89;76.25
62942;BME280;49042;47.318;19.874;2023-07-13T11:39:31;100192.16;;;29.21;76.86
62942;BME280;49042;47.318;19.874;2023-07-13T11:42:35;100192.38;;;29.86;75.71
62942;BME280;49042;47.318;19.874;2023-07-13T11:45:36;100198.25;;;30.27;73.60
62942;BME280;49042;47.318;19.874;2023-07-13T11:48:48;100186.94;;;31.16;67.71
62942;BME280;49042;47.318;19.874;2023-07-13T11:51:51;100172.13;;;32.12;62.81
62942;BME280;49042;47.318;19.874;2023-07-13T11:54:57;100175.84;;;33.60;59.12
62942;BME280;49042;47.318;19.874;2023-07-13T11:58:02;100173.16;;;34.73;57.95
62942;BME280;49042;47.318;19.874;2023-07-13T12:01:05;100174.00;;;35.10;53.75
62942;BME280;49042;47.318;19.874;2023-07-13T12:07:29;100175.38;;;33.79;51.95
62942;BME280;49042;47.318;19.874;2023-07-13T12:10:31;100171.53;;;34.46;51.45
62942;BME280;49042;47.318;19.874;2023-07-13T12:13:37;100178.41;;;35.58;50.37
62942;BME280;49042;47.318;19.874;2023-07-13T12:16:41;100184.00;;;36.69;46.70
62942;BME280;49042;47.318;19.874;2023-07-13T12:19:43;100183.94;;;37.77;43.22
62942;BME280;49042;47.318;19.874;2023-07-13T12:22:46;100192.53;;;37.19;42.59
62942;BME280;49042;47.318;19.874;2023-07-13T12:25:49;100190.06;;;37.37;43.15
62942;BME280;49042;47.318;19.874;2023-07-13T12:28:52;100183.50;;;37.18;40.72
62942;BME280;49042;47.318;19.874;2023-07-13T12:31:58;100195.41;;;37.70;39.97
62942;BME280;49042;47.318;19.874;2023-07-13T12:35:15;100189.06;;;37.60;40.35
62942;BME280;49042;47.318;19.874;2023-07-13T12:38:17;100186.97;;;38.95;38.35
62942;BME280;49042;47.318;19.874;2023-07-13T12:41:19;100188.28;;;38.51;38.76
62942;BME280;49042;47.318;19.874;2023-07-13T12:44:27;100174.06;;;39.55;37.96
62942;BME280;49042;47.318;19.874;2023-07-13T12:47:30;100173.63;;;39.60;36.60
62942;BME280;49042;47.318;19.874;2023-07-13T12:50:46;100166.84;;;39.64;35.10
62942;BME280;49042;47.318;19.874;2023-07-13T12:53:57;100181.44;;;37.95;37.62
62942;BME280;49042;47.318;19.874;2023-07-13T12:57:01;100170.28;;;39.66;34.60
62942;BME280;49042;47.318;19.874;2023-07-13T13:00:18;100188.22;;;38.21;36.21
62942;BME280;49042;47.318;19.874;2023-07-13T13:03:26;100183.09;;;37.76;37.17
62942;BME280;49042;47.318;19.874;2023-07-13T13:06:30;100178.94;;;38.33;37.18
62942;BME280;49042;47.318;19.874;2023-07-13T13:09:31;100176.34;;;38.12;36.32
62942;BME280;49042;47.318;19.874;2023-07-13T13:12:33;100177.84;;;37.95;36.89
62942;BME280;49042;47.318;19.874;2023-07-13T13:15:35;100177.50;;;36.16;38.38
62942;BME280;49042;47.318;19.874;2023-07-13T13:18:38;100189.72;;;37.31;36.10
62942;BME280;49042;47.318;19.874;2023-07-13T13:21:40;100183.37;;;38.34;34.26
62942;BME280;49042;47.318;19.874;2023-07-13T13:24:42;100172.28;;;36.90;36.00
62942;BME280;49042;47.318;19.874;2023-07-13T13:27:45;100169.19;;;36.95;37.21
62942;BME280;49042;47.318;19.874;2023-07-13T13:30:49;100171.84;;;35.73;40.19
62942;BME280;49042;47.318;19.874;2023-07-13T13:33:52;100174.12;;;35.08;41.47
62942;BME280;49042;47.318;19.874;2023-07-13T13:36:54;100168.28;;;36.51;42.36
62942;BME280;49042;47.318;19.874;2023-07-13T13:40:00;100167.78;;;38.47;36.80
62942;BME280;49042;47.318;19.874;2023-07-13T13:43:24;100163.69;;;37.28;35.57
62942;BME280;49042;47.318;19.874;2023-07-13T13:46:29;100159.88;;;36.76;34.64
62942;BME280;49042;47.318;19.874;2023-07-13T13:49:31;100160.38;;;37.24;35.82
62942;BME280;49042;47.318;19.874;2023-07-13T13:52:33;100165.03;;;37.12;34.97
62942;BME280;49042;47.318;19.874;2023-07-13T13:55:35;100162.19;;;37.77;34.85
62942;BME280;49042;47.318;19.874;2023-07-13T13:58:36;100153.63;;;35.63;38.25
62942;BME280;49042;47.318;19.874;2023-07-13T14:01:39;100154.22;;;34.35;40.33
62942;BME280;49042;47.318;19.874;2023-07-13T14:04:41;100157.25;;;33.55;42.38
62942;BME280;49042;47.318;19.874;2023-07-13T14:07:43;100148.06;;;33.44;42.83
62942;BME280;49042;47.318;19.874;2023-07-13T14:10:54;100156.59;;;33.25;43.37
62942;BME280;49042;47.318;19.874;2023-07-13T14:13:59;100159.41;;;33.23;43.83
62942;BME280;49042;47.318;19.874;2023-07-13T14:17:01;100163.31;;;33.45;43.91
62942;BME280;49042;47.318;19.874;2023-07-13T14:20:04;100153.03;;;32.15;45.85
62942;BME280;49042;47.318;19.874;2023-07-13T14:23:06;100157.97;;;31.35;47.36
62942;BME280;49042;47.318;19.874;2023-07-13T14:26:13;100156.44;;;30.85;47.75
62942;BME280;49042;47.318;19.874;2023-07-13T14:29:18;100173.47;;;31.31;51.17
62942;BME280;49042;47.318;19.874;2023-07-13T14:32:24;100152.37;;;30.92;48.70
62942;BME280;49042;47.318;19.874;2023-07-13T14:35:26;100150.88;;;30.88;53.18
62942;BME280;49042;47.318;19.874;2023-07-13T14:38:28;100151.03;;;30.54;53.49
62942;BME280;49042;47.318;19.874;2023-07-13T14:41:30;100169.16;;;30.34;55.02
62942;BME280;49042;47.318;19.874;2023-07-13T14:44:32;100183.81;;;29.96;57.48
62942;BME280;49042;47.318;19.874;2023-07-13T14:47:34;100191.97;;;29.76;58.23
62942;BME280;49042;47.318;19.874;2023-07-13T14:50:36;100188.59;;;29.38;58.70
62942;BME280;49042;47.318;19.874;2023-07-13T14:53:39;100193.97;;;29.21;61.37
62942;BME280;49042;47.318;19.874;2023-07-13T14:56:41;100205.50;;;28.87;62.10
62942;BME280;49042;47.318;19.874;2023-07-13T14:59:43;100206.97;;;28.75;64.61
62942;BME280;49042;47.318;19.874;2023-07-13T15:02:51;100213.66;;;28.84;67.11
62942;BME280;49042;47.318;19.874;2023-07-13T15:05:54;100209.06;;;28.49;66.08
62942;BME280;49042;47.318;19.874;2023-07-13T15:08:57;100215.19;;;28.52;69.62
62942;BME280;49042;47.318;19.874;2023-07-13T15:11:59;100218.44;;;28.40;72.47
62942;BME280;49042;47.318;19.874;2023-07-13T15:15:01;100222.34;;;28.13;74.06
62942;BME280;49042;47.318;19.874;2023-07-13T15:18:02;100225.03;;;27.94;75.55
62942;BME280;49042;47.318;19.874;2023-07-13T15:21:04;100225.16;;;27.90;76.93
62942;BME280;49042;47.318;19.874;2023-07-13T15:24:10;100236.75;;;27.70;78.24
62942;BME280;49042;47.318;19.874;2023-07-13T15:27:12;100238.34;;;27.53;78.43
62942;BME280;49042;47.318;19.874;2023-07-13T15:30:14;100245.19;;;27.40;82.97
62942;BME280;49042;47.318;19.874;2023-07-13T15:33:28;100252.66;;;27.10;83.09
62942;BME280;49042;47.318;19.874;2023-07-13T15:36:30;100248.84;;;26.93;86.03
62942;BME280;49042;47.318;19.874;2023-07-13T15:39:35;100244.13;;;26.78;85.69
62942;BME280;49042;47.318;19.874;2023-07-13T15:42:43;100246.66;;;26.58;86.52
62942;BME280;49042;47.318;19.874;2023-07-13T15:45:46;100250.34;;;26.56;88.29
62942;BME280;49042;47.318;19.874;2023-07-13T15:48:50;100253.87;;;26.32;89.25
62942;BME280;49042;47.318;19.874;2023-07-13T15:51:52;100261.06;;;26.30;90.19
62942;BME280;49042;47.318;19.874;2023-07-13T15:54:54;100263.53;;;26.12;91.08
62942;BME280;49042;47.318;19.874;2023-07-13T15:57:56;100277.63;;;26.16;92.73
62942;BME280;49042;47.318;19.874;2023-07-13T16:00:59;100273.25;;;26.15;91.81
62942;BME280;49042;47.318;19.874;2023-07-13T16:04:01;100282.94;;;26.17;93.01
62942;BME280;49042;47.318;19.874;2023-07-13T16:07:03;100265.31;;;26.12;83.28
62942;BME280;49042;47.318;19.874;2023-07-13T16:10:05;100289.19;;;25.92;93.76
62942;BME280;49042;47.318;19.874;2023-07-13T16:13:14;100293.12;;;25.82;91.10
62942;BME280;49042;47.318;19.874;2023-07-13T16:16:16;100302.38;;;25.97;95.34
62942;BME280;49042;47.318;19.874;2023-07-13T16:19:18;100294.66;;;26.13;94.04
62942;BME280;49042;47.318;19.874;2023-07-13T16:22:20;100298.88;;;25.95;96.01
62942;BME280;49042;47.318;19.874;2023-07-13T16:25:24;100278.41;;;25.94;82.68
62942;BME280;49042;47.318;19.874;2023-07-13T16:28:27;100306.31;;;25.86;100.00
62942;BME280;49042;47.318;19.874;2023-07-13T16:31:31;100308.75;;;25.65;100.00
62942;BME280;49042;47.318;19.874;2023-07-13T16:34:38;100302.19;;;25.76;100.00
62942;BME280;49042;47.318;19.874;2023-07-13T16:37:42;100296.94;;;25.73;98.92
62942;BME280;49042;47.318;19.874;2023-07-13T16:41:02;100308.91;;;26.14;100.00
62942;BME280;49042;47.318;19.874;2023-07-13T16:44:11;100311.59;;;25.88;100.00
62942;BME280;49042;47.318;19.874;2023-07-13T16:47:16;100302.72;;;25.60;100.00
62942;BME280;49042;47.318;19.874;2023-07-13T16:50:29;100309.19;;;25.53;100.00
62942;BME280;49042;47.318;19.874;2023-07-13T16:53:32;100316.62;;;25.70;100.00
62942;BME280;49042;47.318;19.874;2023-07-13T16:56:34;100324.97;;;25.61;100.00
62942;BME280;49042;47.318;19.874;2023-07-13T16:59:36;100317.41;;;25.47;100.00
62942;BME280;49042;47.318;19.874;2023-07-13T17:02:38;100317.59;;;25.67;100.00
62942;BME280;49042;47.318;19.874;2023-07-13T17:05:43;100324.44;;;25.49;100.00
62942;BME280;49042;47.318;19.874;2023-07-13T17:08:45;100336.47;;;25.07;100.00
62942;BME280;49042;47.318;19.874;2023-07-13T17:11:47;100333.50;;;25.16;100.00
62942;BME280;49042;47.318;19.874;2023-07-13T17:14:49;100334.12;;;25.24;100.00
62942;BME280;49042;47.318;19.874;2023-07-13T17:17:51;100342.00;;;24.99;100.00
62942;BME280;49042;47.318;19.874;2023-07-13T17:20:54;100340.03;;;24.77;100.00
62942;BME280;49042;47.318;19.874;2023-07-13T17:23:56;100337.28;;;24.80;100.00
62942;BME280;49042;47.318;19.874;2023-07-13T17:26:58;100318.44;;;24.85;100.00
62942;BME280;49042;47.318;19.874;2023-07-13T17:30:00;100322.16;;;24.80;100.00
62942;BME280;49042;47.318;19.874;2023-07-13T17:33:05;100302.91;;;24.38;100.00
62942;BME280;49042;47.318;19.874;2023-07-13T17:36:13;100291.22;;;24.44;100.00
62942;BME280;49042;47.318;19.874;2023-07-13T17:39:20;100284.22;;;24.40;100.00
62942;BME280;49042;47.318;19.874;2023-07-13T17:42:22;100264.94;;;24.30;100.00
62942;BME280;49042;47.318;19.874;2023-07-13T17:45:29;100248.59;;;24.43;100.00